Time;durP1;ratioP1;P1;durP2;ratioP2;P2;SDS_P1;SDS_P2;PMS_P1;PMS_P2;Temp;Humidity;BMP_temperature;BMP_pressure;BME280_temperature;BME280_humidity;BME280_pressure;Samples;Min_cycle;Max_cycle;Signal;HPM_P1;HPM_P2
2021/03/17 00:00:15;;;;;;;11.57;3.53;;;11.50;99.90;;;11.00;94.39;102746.91;4217908;28;20072;-74
2021/03/17 00:02:16;;;;;;;9.18;3.35;;;11.50;99.90;;;11.26;93.16;102766.16;4217572;28;20082;-74
2021/03/17 00:04:17;;;;;;;9.77;4.55;;;11.60;99.90;;;11.25;93.27;102774.22;4221209;28;20078;-74
2021/03/17 00:06:18;;;;;;;7.53;3.63;;;11.70;99.90;;;11.25;93.10;102784.78;4221323;28;20490;-74
2021/03/17 00:08:20;;;;;;;8.13;3.83;;;11.70;99.90;;;11.31;93.40;102789.63;4221071;28;20032;-74
2021/03/17 00:10:23;;;;;;;10.98;4.55;;;11.70;99.90;;;11.27;93.46;102781.06;4220920;28;20403;-74
2021/03/17 00:12:24;;;;;;;10.70;3.80;;;11.80;99.90;;;11.34;92.98;102782.31;4221126;28;20499;-74
2021/03/17 00:14:25;;;;;;;6.25;3.15;;;11.80;99.90;;;11.30;93.17;102772.06;4221009;28;20027;-74
2021/03/17 00:16:25;;;;;;;9.57;3.72;;;11.80;99.90;;;11.33;93.08;102771.84;4221032;28;20024;-74
2021/03/17 00:18:27;;;;;;;8.05;3.35;;;11.90;99.90;;;11.23;93.29;102770.84;4220521;28;20064;-74
2021/03/17 00:20:30;;;;;;;8.80;3.65;;;11.80;99.90;;;11.27;93.22;102775.78;4220966;28;20077;-74
2021/03/17 00:22:31;;;;;;;8.77;3.42;;;11.80;99.90;;;11.30;92.65;102778.19;4221083;28;20077;-74
2021/03/17 00:24:32;;;;;;;8.00;3.65;;;11.80;99.90;;;11.34;92.60;102778.84;4220834;28;20051;-74
2021/03/17 00:26:32;;;;;;;10.30;3.30;;;11.80;99.90;;;11.31;93.17;102781.69;4220693;28;20024;-74
2021/03/17 00:28:33;;;;;;;9.00;4.70;;;11.80;99.90;;;11.13;93.98;102783.03;4220814;28;20016;-74
2021/03/17 00:30:37;;;;;;;9.38;4.15;;;11.80;99.90;;;11.15;93.46;102774.03;4220776;28;20039;-74
2021/03/17 00:32:38;;;;;;;7.90;4.10;;;11.80;99.90;;;10.97;94.20;102785.91;4220452;28;20102;-74
2021/03/17 00:34:39;;;;;;;8.77;4.40;;;11.70;99.90;;;11.05;93.72;102794.97;4220436;28;20085;-74
2021/03/17 00:36:40;;;;;;;11.07;4.22;;;11.70;99.90;;;11.00;93.83;102783.03;4220583;28;20487;-74
2021/03/17 00:38:43;;;;;;;11.30;4.70;;;11.60;99.90;;;11.05;93.60;102784.41;4220677;28;20031;-74
2021/03/17 00:40:44;;;;;;;9.13;4.13;;;11.60;99.90;;;11.09;93.20;102793.81;4219249;28;20589;-74
2021/03/17 00:42:45;;;;;;;8.93;4.25;;;11.60;99.90;;;10.99;93.83;102789.31;4218781;28;20043;-74
2021/03/17 00:44:46;;;;;;;8.02;3.78;;;11.60;99.90;;;11.02;93.39;102795.19;4220489;28;20487;-74
2021/03/17 00:46:47;;;;;;;7.63;3.63;;;11.60;99.90;;;11.02;93.55;102794.38;4220240;28;20070;-74
2021/03/17 00:48:48;;;;;;;7.15;3.55;;;11.50;99.90;;;11.04;93.66;102803.00;4220317;28;20048;-74
2021/03/17 00:50:49;;;;;;;8.02;3.97;;;11.50;99.90;;;10.96;93.55;102777.13;4220372;28;20059;-74
2021/03/17 00:52:50;;;;;;;10.40;4.38;;;11.50;99.90;;;11.03;93.53;102801.31;4220444;28;20028;-74
2021/03/17 00:54:52;;;;;;;8.82;3.90;;;11.50;99.90;;;10.88;93.70;102807.66;4220486;28;20024;-74
2021/03/17 00:56:53;;;;;;;8.88;3.95;;;11.50;99.90;;;10.96;93.88;102800.06;4220608;28;20027;-74
2021/03/17 00:58:53;;;;;;;9.60;4.35;;;11.50;99.90;;;10.98;93.43;102806.94;4220301;28;20475;-74
2021/03/17 01:00:54;;;;;;;8.82;4.05;;;11.50;99.90;;;10.79;93.80;102803.88;4220402;28;20024;-74
2021/03/17 01:02:55;;;;;;;6.38;3.70;;;11.50;99.90;;;10.84;94.08;102809.69;4219982;28;20475;-74
2021/03/17 01:04:56;;;;;;;9.55;4.00;;;11.50;99.90;;;10.86;94.05;102812.22;4220224;28;20019;-74
2021/03/17 01:06:57;;;;;;;8.95;4.40;;;11.40;99.90;;;10.93;93.60;102816.13;4220154;28;20028;-74
2021/03/17 01:08:58;;;;;;;9.38;4.35;;;11.40;99.90;;;10.90;93.77;102826.91;4220107;28;20059;-74
2021/03/17 01:11:00;;;;;;;7.00;3.78;;;11.40;99.90;;;10.82;93.94;102813.38;4220323;28;20115;-74
2021/03/17 01:13:01;;;;;;;10.40;4.00;;;11.40;99.90;;;10.85;93.94;102815.81;4220094;28;20028;-74
2021/03/17 01:15:03;;;;;;;11.82;3.85;;;11.30;99.90;;;10.89;93.32;102819.94;4218937;28;20035;-74
2021/03/17 01:17:06;;;;;;;10.30;4.88;;;11.30;99.90;;;10.80;94.00;102824.06;4219577;28;20047;-74
2021/03/17 01:19:07;;;;;;;8.48;4.10;;;11.20;99.90;;;10.73;93.63;102820.16;4220067;28;20024;-74
2021/03/17 01:21:08;;;;;;;11.60;4.30;;;11.20;99.90;;;10.46;93.72;102780.66;4220137;28;20073;-74
2021/03/17 01:23:09;;;;;;;9.75;4.30;;;11.10;99.90;;;10.42;92.92;102771.28;4219929;28;20028;-74
2021/03/17 01:25:13;;;;;;;12.02;4.43;;;11.10;99.90;;;10.68;93.53;102811.72;4219942;28;20479;-74
2021/03/17 01:27:14;;;;;;;11.00;4.47;;;11.00;99.90;;;10.64;93.58;102809.38;4219954;28;20024;-74
2021/03/17 01:29:15;;;;;;;7.90;4.53;;;11.00;99.90;;;10.55;93.41;102821.41;4219846;28;20073;-74
2021/03/17 01:31:16;;;;;;;9.65;4.15;;;10.90;99.90;;;10.40;94.58;102823.31;4218497;28;20067;-74
2021/03/17 01:33:18;;;;;;;9.18;3.92;;;10.90;99.90;;;10.32;95.13;102819.50;4219407;28;20111;-74
2021/03/17 01:35:20;;;;;;;12.63;4.45;;;10.80;99.90;;;10.15;95.58;102802.19;4218597;28;20020;-74
2021/03/17 01:37:21;;;;;;;7.68;4.95;;;10.80;99.90;;;10.15;96.09;102818.00;4213063;28;20482;-74
2021/03/17 01:39:22;;;;;;;15.10;4.38;;;10.70;99.90;;;9.77;95.81;102743.22;4218461;28;20160;-74
2021/03/17 01:41:23;;;;;;;12.57;4.78;;;10.60;99.90;;;10.15;95.68;102818.00;4219592;28;20020;-74
2021/03/17 01:43:24;;;;;;;10.20;4.25;;;10.60;99.90;;;10.14;95.80;102810.19;4219643;28;20521;-74
2021/03/17 01:45:25;;;;;;;11.20;4.50;;;10.60;99.90;;;10.15;96.08;102822.44;4219829;28;20028;-73
2021/03/17 01:47:26;;;;;;;11.68;4.90;;;10.60;99.90;;;10.06;96.60;102823.00;4219271;28;20110;-73
2021/03/17 01:49:27;;;;;;;10.73;5.13;;;10.50;99.90;;;10.03;96.23;102819.63;4219346;28;20040;-73
2021/03/17 01:51:28;;;;;;;8.77;4.80;;;10.50;99.90;;;10.02;96.73;102820.59;4219532;28;20457;-73
2021/03/17 01:53:33;;;;;;;9.30;4.88;;;10.50;99.90;;;10.00;96.58;102809.28;4219611;28;20028;-74
2021/03/17 01:55:35;;;;;;;8.10;4.13;;;10.40;99.90;;;10.00;95.92;102814.53;4217975;28;20032;-74
2021/03/17 01:57:37;;;;;;;11.85;5.38;;;10.40;99.90;;;9.95;96.66;102811.38;4218440;28;20036;-74
2021/03/17 01:59:38;;;;;;;8.43;4.38;;;10.40;99.90;;;9.74;97.93;102817.22;4219429;28;20032;-74
2021/03/17 02:01:39;;;;;;;15.23;5.03;;;10.30;99.90;;;9.79;97.04;102821.25;4218089;28;20553;-74
2021/03/17 02:03:40;;;;;;;10.23;4.07;;;10.40;99.90;;;9.80;97.35;102828.19;4214916;28;20028;-74
2021/03/17 02:05:47;;;;;;;9.50;4.68;;;10.30;99.90;;;9.87;97.74;102826.88;4219220;28;20099;-74
2021/03/17 02:07:48;;;;;;;8.35;4.30;;;10.30;99.90;;;9.93;96.67;102813.28;4217802;28;20024;-73
2021/03/17 02:09:49;;;;;;;11.05;4.93;;;10.40;99.90;;;9.98;96.78;102832.25;4219180;28;20031;-73
2021/03/17 02:12:26;;;;;;;11.57;4.20;;;10.50;99.90;;;10.08;96.43;102832.50;4218983;28;20559;-73
2021/03/17 02:15:01;;;;;;;8.18;5.07;;;10.50;99.90;;;9.84;97.22;102813.03;4215735;28;20078;-73
2021/03/17 02:17:12;;;;;;;13.82;5.25;;;10.60;99.90;;;9.84;97.74;102827.06;4214823;28;20675;-74
2021/03/17 02:19:13;;;;;;;9.50;4.32;;;10.70;99.90;;;9.92;97.37;102832.66;4201606;28;20052;-74
2021/03/17 02:21:30;;;;;;;14.77;4.78;;;10.70;99.90;;;10.00;96.99;102822.44;4212403;28;20024;-73
2021/03/17 02:23:43;;;;;;;11.23;5.03;;;10.70;99.90;;;10.05;97.03;102830.06;4216645;28;20017;-74
2021/03/17 02:26:21;;;;;;;11.25;5.28;;;10.70;99.90;;;10.10;97.09;102832.38;4218105;28;20020;-74
2021/03/17 02:28:54;;;;;;;13.63;5.97;;;10.80;99.90;;;9.82;97.56;102831.59;4217530;28;20028;-74
2021/03/17 02:31:46;;;;;;;14.52;6.38;;;10.70;99.90;;;9.86;97.66;102835.72;4186718;28;20131;-74
2021/03/17 02:34:00;;;;;;;12.73;6.07;;;10.70;99.90;;;9.54;98.15;102807.13;4201538;28;20063;-74
2021/03/17 02:36:44;;;;;;;12.35;6.60;;;10.60;99.90;;;9.63;98.18;102831.09;4218666;28;20040;-74
2021/03/17 02:39:00;;;;;;;16.70;8.38;;;10.50;99.90;;;9.68;97.48;102817.59;4218510;28;20027;-74
2021/03/17 02:41:02;;;;;;;12.32;7.70;;;10.40;99.90;;;9.70;98.29;102836.81;4200587;28;20016;-74
2021/03/17 02:43:22;;;;;;;16.90;6.95;;;10.40;99.90;;;9.75;97.40;102827.66;4217285;28;20035;-74
2021/03/17 02:45:27;;;;;;;15.63;6.22;;;10.30;99.90;;;9.53;97.53;102822.06;4209649;28;20024;-74
2021/03/17 02:47:34;;;;;;;9.55;5.93;;;10.20;99.90;;;9.66;98.48;102849.34;4217188;28;20031;-74
2021/03/17 02:49:38;;;;;;;16.15;7.35;;;10.10;99.90;;;9.68;98.24;102844.81;4218453;28;20051;-75
2021/03/17 02:51:49;;;;;;;16.05;6.75;;;10.10;99.90;;;9.35;97.78;102794.28;4217269;28;20039;-74
2021/03/17 02:53:51;;;;;;;11.00;5.95;;;10.00;99.90;;;9.73;97.15;102829.56;4211729;28;20027;-73
2021/03/17 02:56:00;;;;;;;12.23;6.57;;;10.00;99.90;;;9.76;96.54;102832.00;4215632;28;20061;-73
2021/03/17 02:58:01;;;;;;;14.27;6.35;;;10.00;99.90;;;9.66;97.40;102836.16;4216907;28;20445;-73
2021/03/17 03:00:08;;;;;;;14.02;8.43;;;10.00;99.90;;;9.65;97.65;102841.50;4210138;28;20031;-74
2021/03/17 03:02:12;;;;;;;11.23;6.78;;;10.00;99.90;;;9.65;96.38;102831.81;4213851;28;20024;-74
2021/03/17 03:04:15;;;;;;;14.02;7.05;;;10.00;99.90;;;9.39;96.24;102806.31;4217327;28;20055;-74
2021/03/17 03:06:17;;;;;;;12.82;6.18;;;10.00;99.90;;;9.57;97.70;102854.34;4207786;28;20024;-74
2021/03/17 03:08:18;;;;;;;13.98;6.93;;;9.90;99.90;;;9.41;97.73;102855.31;4212405;28;20035;-74
2021/03/17 03:10:24;;;;;;;12.52;6.68;;;9.80;99.90;;;9.55;97.41;102862.38;4217040;28;20032;-74
2021/03/17 03:12:26;;;;;;;14.95;7.60;;;9.80;99.90;;;9.58;97.12;102863.94;4218579;28;20039;-74
2021/03/17 03:14:28;;;;;;;13.45;7.32;;;9.80;99.90;;;9.59;96.92;102865.66;4218439;28;20027;-73
2021/03/17 03:16:32;;;;;;;11.82;6.55;;;9.80;99.90;;;9.43;96.65;102836.78;4218132;28;20118;-73
2021/03/17 03:18:35;;;;;;;13.45;7.25;;;9.80;99.90;;;9.42;97.57;102853.53;4218387;28;20037;-73
2021/03/17 03:20:37;;;;;;;16.48;7.65;;;9.70;99.90;;;9.41;97.91;102846.56;4217411;28;20055;-73
2021/03/17 03:22:42;;;;;;;15.43;7.40;;;9.70;99.90;;;9.45;96.79;102848.94;4217355;28;20020;-73
2021/03/17 03:24:44;;;;;;;13.38;6.88;;;9.70;99.90;;;9.52;96.87;102848.53;4217124;28;20024;-73
2021/03/17 03:26:53;;;;;;;20.45;7.32;;;9.70;99.90;;;9.40;97.10;102853.66;4217024;28;20020;-74
2021/03/17 03:28:56;;;;;;;12.02;6.68;;;9.60;99.90;;;9.39;96.38;102838.78;4218490;28;20024;-73
2021/03/17 03:30:57;;;;;;;11.55;6.47;;;9.60;99.90;;;9.37;97.21;102853.00;4217241;28;20024;-74
2021/03/17 03:32:58;;;;;;;13.25;6.40;;;9.60;99.90;;;9.27;98.36;102855.34;4204353;28;20028;-73
2021/03/17 03:34:59;;;;;;;13.13;6.72;;;9.50;99.90;;;9.22;98.67;102851.31;4218412;28;20031;-74
2021/03/17 03:37:00;;;;;;;10.55;7.15;;;9.50;99.90;;;9.20;97.62;102827.69;4218223;28;20051;-74
2021/03/17 03:39:02;;;;;;;12.90;6.40;;;9.50;99.90;;;9.33;97.15;102854.13;4221491;28;20403;-74
2021/03/17 03:41:04;;;;;;;11.60;6.35;;;9.50;99.90;;;9.26;97.21;102858.91;4220435;28;20028;-74
2021/03/17 03:43:07;;;;;;;10.05;6.63;;;9.50;99.90;;;9.27;98.11;102870.31;4208456;28;20051;-73
2021/03/17 03:45:11;;;;;;;15.15;7.70;;;9.50;99.90;;;9.26;97.75;102869.44;4221666;28;20055;-74
2021/03/17 03:47:12;;;;;;;14.43;7.88;;;9.50;99.90;;;9.26;98.03;102872.09;4221649;28;20031;-74
2021/03/17 03:49:13;;;;;;;14.73;6.63;;;9.40;99.90;;;9.21;97.70;102870.69;4221412;28;20048;-73
2021/03/17 03:51:19;;;;;;;14.13;7.03;;;9.40;99.90;;;9.24;97.29;102873.97;4220518;28;20044;-74
2021/03/17 03:54:06;;;;;;;11.27;6.35;;;9.40;99.90;;;9.16;98.05;102878.88;4221719;28;20035;-74
2021/03/17 03:56:37;;;;;;;20.00;7.85;;;9.40;99.90;;;9.21;97.26;102884.69;4220479;28;20032;-74
2021/03/17 03:59:05;;;;;;;14.65;6.28;;;9.40;99.90;;;9.07;97.84;102873.31;4215555;28;20107;-74
2021/03/17 04:01:25;;;;;;;11.68;6.40;;;9.40;99.90;;;9.15;98.08;102878.97;4217618;28;20052;-74
2021/03/17 04:03:28;;;;;;;15.68;8.68;;;9.30;99.90;;;9.09;97.02;102879.34;4212102;28;20028;-74
2021/03/17 04:05:36;;;;;;;12.43;7.33;;;9.30;99.90;;;9.21;96.75;102882.06;4217077;28;20028;-74
2021/03/17 04:07:44;;;;;;;14.63;7.28;;;9.30;99.90;;;9.15;96.97;102886.84;4220162;28;20032;-74
2021/03/17 04:09:48;;;;;;;13.63;7.50;;;9.40;99.90;;;9.02;97.89;102886.75;4211869;28;20028;-74
2021/03/17 04:11:50;;;;;;;15.05;7.45;;;9.30;99.90;;;9.13;97.18;102884.34;4215679;28;20028;-74
2021/03/17 04:13:52;;;;;;;12.90;7.57;;;9.30;99.90;;;9.00;97.29;102888.66;4219893;28;20032;-74
2021/03/17 04:15:57;;;;;;;13.55;8.35;;;9.30;99.90;;;9.02;98.10;102881.50;4219936;28;20032;-74
2021/03/17 04:18:18;;;;;;;15.07;8.40;;;9.30;99.90;;;8.88;98.39;102887.59;4211987;28;20032;-74
2021/03/17 04:20:29;;;;;;;15.20;7.88;;;9.20;99.90;;;8.87;98.44;102878.00;4219793;28;20027;-74
2021/03/17 04:22:31;;;;;;;16.10;7.97;;;9.10;99.90;;;8.93;97.97;102881.22;4208603;28;20062;-74
2021/03/17 04:24:34;;;;;;;12.75;7.90;;;9.10;99.90;;;8.98;97.28;102887.06;4214334;28;20073;-74
2021/03/17 04:26:37;;;;;;;14.98;7.68;;;9.20;99.90;;;9.00;97.36;102887.78;4221053;28;20048;-74
2021/03/17 04:28:41;;;;;;;16.52;8.35;;;9.20;99.90;;;8.68;97.57;102837.13;4219768;28;20529;-74
2021/03/17 04:30:43;;;;;;;20.08;10.48;;;9.10;99.90;;;8.89;98.62;102881.41;4210508;28;20032;-74
2021/03/17 04:32:47;;;;;;;14.48;7.82;;;9.10;99.90;;;8.81;98.80;102888.91;4198011;28;20067;-74
2021/03/17 04:34:50;;;;;;;14.18;8.27;;;9.00;99.90;;;8.76;98.83;102882.22;4218469;28;20111;-74
2021/03/17 04:36:53;;;;;;;13.50;8.40;;;8.90;99.90;;;8.85;97.04;102884.31;4208491;28;20565;-74
2021/03/17 04:38:55;;;;;;;12.57;8.20;;;9.00;99.90;;;8.74;97.79;102877.06;4212118;28;20622;-74
2021/03/17 04:40:57;;;;;;;15.85;9.80;;;8.90;99.90;;;8.71;97.99;102884.31;4220806;28;20555;-74
2021/03/17 04:42:59;;;;;;;15.35;9.50;;;8.90;99.90;;;8.67;97.81;102873.09;4220697;28;20093;-74
2021/03/17 04:45:03;;;;;;;16.80;9.63;;;8.90;99.90;;;8.79;97.93;102884.69;4219529;28;20016;-74
2021/03/17 04:47:05;;;;;;;15.07;9.55;;;8.90;99.90;;;8.83;96.82;102891.47;4213432;28;20024;-74
2021/03/17 04:49:07;;;;;;;19.70;9.98;;;8.90;99.90;;;8.85;96.83;102900.09;4219151;28;20657;-74
2021/03/17 04:51:10;;;;;;;19.75;11.45;;;8.90;99.90;;;8.88;97.09;102900.75;4219306;28;20556;-74
2021/03/17 04:53:12;;;;;;;16.73;9.48;;;9.00;99.90;;;8.68;98.04;102909.00;4210369;28;20042;-74
2021/03/17 04:55:15;;;;;;;14.10;8.55;;;9.00;99.90;;;8.78;96.51;102910.13;4220609;28;20060;-74
2021/03/17 04:57:25;;;;;;;15.65;9.30;;;9.00;99.90;;;8.52;97.14;102908.22;4220585;28;20080;-74
2021/03/17 04:59:26;;;;;;;21.15;9.63;;;8.90;99.90;;;8.49;98.87;102905.75;4220589;28;20080;-74
2021/03/17 05:01:30;;;;;;;16.98;9.40;;;8.80;99.90;;;8.51;98.59;102917.03;4218814;28;20027;-74
2021/03/17 05:03:32;;;;;;;15.77;8.50;;;8.80;99.90;;;8.53;98.32;102904.66;4213404;28;20020;-74
2021/03/17 05:05:38;;;;;;;16.33;9.73;;;8.80;99.90;;;8.47;99.03;102905.00;4218405;28;20074;-74
2021/03/17 05:07:40;;;;;;;15.20;11.00;;;8.70;99.90;;;8.38;98.60;102905.53;4219016;28;20028;-74
2021/03/17 05:09:42;;;;;;;14.85;10.27;;;8.70;99.90;;;8.47;99.10;102914.69;4211232;28;20027;-74
2021/03/17 05:11:46;;;;;;;20.40;10.75;;;8.70;99.90;;;8.41;99.41;102905.38;4214557;28;20417;-74
2021/03/17 05:13:47;;;;;;;18.60;10.10;;;8.60;99.90;;;8.50;98.77;102896.94;4220296;28;20038;-74
2021/03/17 05:15:50;;;;;;;15.57;10.07;;;8.60;99.90;;;8.41;99.04;102904.53;4219103;28;20035;-74
2021/03/17 05:17:52;;;;;;;12.32;8.82;;;8.70;99.90;;;8.31;99.61;102909.47;4211062;28;20028;-74
2021/03/17 05:19:53;;;;;;;22.17;10.55;;;8.60;99.90;;;8.30;99.43;102918.31;4215892;28;20027;-74
2021/03/17 05:21:56;;;;;;;18.35;10.45;;;8.50;99.90;;;8.21;98.83;102914.34;4220071;28;20024;-74
2021/03/17 05:23:58;;;;;;;13.48;9.57;;;8.50;99.90;;;8.27;99.30;102919.28;4220165;28;20020;-74
2021/03/17 05:26:01;;;;;;;17.08;10.15;;;8.50;99.90;;;8.45;97.78;102927.94;4218927;28;20031;-74
2021/03/17 05:28:06;;;;;;;20.98;9.45;;;8.50;99.90;;;8.42;99.25;102930.75;4215847;28;20399;-74
2021/03/17 05:30:11;;;;;;;21.00;11.10;;;8.60;99.90;;;8.44;98.72;102920.97;4220009;28;20032;-74
2021/03/17 05:32:14;;;;;;;16.60;9.13;;;8.60;99.90;;;8.41;98.48;102913.25;4219759;28;20157;-74
2021/03/17 05:34:16;;;;;;;16.35;8.98;;;8.70;99.90;;;8.41;98.63;102915.03;4220090;28;20107;-74
2021/03/17 05:36:16;;;;;;;15.07;9.52;;;8.70;99.90;;;8.24;100.00;102918.63;4219861;28;20498;-74
2021/03/17 05:38:18;;;;;;;15.50;9.13;;;8.60;99.90;;;8.21;100.00;102914.34;4219885;28;20034;-74
2021/03/17 05:40:19;;;;;;;12.80;9.10;;;8.50;99.90;;;8.24;100.00;102913.34;4219960;28;20403;-74
2021/03/17 05:42:22;;;;;;;16.85;9.05;;;8.50;99.90;;;8.26;100.00;102922.00;4219801;28;20020;-74
2021/03/17 05:44:23;;;;;;;25.95;10.95;;;8.50;99.90;;;8.22;99.18;102912.56;4219564;28;20123;-74
2021/03/17 05:46:25;;;;;;;19.77;9.60;;;8.50;99.90;;;8.37;99.78;102924.88;4218320;28;20024;-74
2021/03/17 05:48:28;;;;;;;15.85;9.82;;;8.50;99.90;;;8.39;98.88;102928.28;4209480;28;20043;-74
2021/03/17 05:50:30;;;;;;;19.00;8.75;;;8.60;99.90;;;8.54;97.89;102935.25;4213125;28;20098;-74
2021/03/17 05:52:31;;;;;;;12.57;7.97;;;8.60;99.90;;;8.37;97.94;102930.13;4219506;28;20074;-74
2021/03/17 05:54:33;;;;;;;18.60;10.25;;;8.60;99.90;;;8.45;97.94;102937.59;4218324;28;20533;-74
2021/03/17 05:56:37;;;;;;;13.13;9.07;;;8.60;99.90;;;8.42;98.63;102927.25;4210604;28;20024;-74
2021/03/17 05:58:39;;;;;;;12.98;9.48;;;8.60;99.90;;;8.24;98.60;102916.81;4219463;28;20028;-74
2021/03/17 06:00:40;;;;;;;15.98;9.43;;;8.60;99.90;;;8.12;98.60;102917.50;4217518;28;20112;-74
2021/03/17 06:02:42;;;;;;;17.50;9.52;;;8.50;99.90;;;8.18;99.13;102934.75;4207329;28;20012;-74
2021/03/17 06:04:44;;;;;;;20.90;9.90;;;8.40;99.90;;;8.14;98.49;102930.59;4219507;28;20024;-74
2021/03/17 06:06:45;;;;;;;20.65;9.65;;;8.40;99.90;;;8.15;99.44;102927.03;4218236;28;20038;-74
2021/03/17 06:08:47;;;;;;;14.32;8.45;;;8.40;99.90;;;8.00;99.47;102920.84;4216451;28;20503;-74
2021/03/17 06:10:49;;;;;;;16.42;8.25;;;8.30;99.90;;;8.04;98.61;102901.34;4206094;28;20020;-74
2021/03/17 06:12:59;;;;;;;16.65;8.60;;;8.30;99.90;;;8.07;99.27;102926.59;4218219;28;20046;-74
2021/03/17 06:15:00;;;;;;;15.35;8.32;;;8.30;99.90;;;8.05;98.09;102931.09;4219225;28;20028;-74
2021/03/17 06:17:08;;;;;;;17.67;8.88;;;8.20;99.90;;;7.98;98.19;102927.09;4217574;28;20024;-74
2021/03/17 06:19:12;;;;;;;18.20;9.27;;;8.20;99.90;;;7.75;98.69;102926.63;4208066;28;20066;-74
2021/03/17 06:21:18;;;;;;;16.77;8.05;;;8.10;99.90;;;7.61;98.46;102902.06;4212052;28;20078;-74
2021/03/17 06:23:19;;;;;;;13.70;8.15;;;8.10;99.90;;;7.78;98.69;102922.97;4219113;28;20483;-74
2021/03/17 06:25:21;;;;;;;14.73;9.27;;;8.00;99.90;;;7.94;97.32;102920.34;4218128;28;20028;-74
2021/03/17 06:27:23;;;;;;;16.63;8.32;;;8.00;99.90;;;7.93;98.00;102924.75;4210075;28;20034;-74
2021/03/17 06:29:25;;;;;;;15.82;8.13;;;8.10;99.90;;;7.95;98.24;102922.88;4218876;28;20111;-74
2021/03/17 06:31:28;;;;;;;17.67;9.13;;;8.10;99.90;;;8.08;97.37;102923.03;4217311;28;20535;-74
2021/03/17 06:33:29;;;;;;;16.48;8.38;;;8.10;99.90;;;8.01;98.11;102924.31;4239279;27;20578;-74
2021/03/17 06:35:30;;;;;;;15.45;9.27;;;8.20;99.90;;;7.98;98.58;102932.38;4218822;28;20093;-74
2021/03/17 06:37:37;;;;;;;14.57;8.18;;;8.20;99.90;;;8.05;97.92;102928.47;4218886;28;20110;-74
2021/03/17 06:39:38;;;;;;;16.67;8.15;;;8.10;99.90;;;8.08;97.02;102931.78;4218445;28;20052;-74
2021/03/17 06:41:52;;;;;;;15.10;8.15;;;8.20;99.90;;;8.17;96.32;102931.25;4218711;28;20024;-74
2021/03/17 06:43:53;;;;;;;13.40;8.53;;;8.30;99.90;;;7.96;96.83;102935.09;4218614;28;20051;-74
2021/03/17 06:46:02;;;;;;;16.75;8.55;;;8.30;99.90;;;7.75;97.79;102916.13;4218626;28;20020;-74
2021/03/17 06:48:23;;;;;;;17.70;9.05;;;8.30;99.90;;;7.92;98.17;102943.22;4218584;28;20028;-74
2021/03/17 06:50:29;;;;;;;19.95;9.52;;;8.20;99.90;;;7.92;98.56;102948.47;4218602;28;20119;-74
2021/03/17 06:52:41;;;;;;;17.30;8.93;;;8.30;99.90;;;7.98;98.46;102948.13;4218821;28;20096;-74
2021/03/17 06:55:04;;;;;;;13.25;8.00;;;8.30;99.90;;;8.05;97.97;102949.50;4218759;28;20032;-74
2021/03/17 06:57:26;;;;;;;19.23;7.80;;;8.30;99.90;;;8.13;97.16;102957.78;4218615;28;20407;-74
2021/03/17 06:59:27;;;;;;;20.92;8.57;;;8.30;99.90;;;8.15;96.72;102955.94;4218814;28;20038;-75
2021/03/17 07:01:29;;;;;;;14.07;7.43;;;8.40;99.90;;;8.02;97.52;102952.28;4218358;28;20020;-74
2021/03/17 07:03:30;;;;;;;16.77;8.27;;;8.50;99.90;;;8.09;97.80;102958.91;4218639;28;20395;-74
2021/03/17 07:05:45;;;;;;;14.25;8.23;;;8.50;99.90;;;8.07;98.49;102953.72;4217336;28;20360;-74
2021/03/17 07:07:50;;;;;;;;;;;8.40;99.90;;;8.02;97.74;102953.16;4207936;28;20070;-73
2021/03/17 07:10:00;;;;;;;15.20;7.35;;;8.50;99.90;;;8.00;98.21;102948.91;4218465;28;19916;-74
2021/03/17 07:12:04;;;;;;;15.82;9.10;;;8.50;99.90;;;8.03;97.19;102961.88;4200301;28;20506;-73
2021/03/17 07:14:05;;;;;;;13.10;7.18;;;8.50;99.90;;;8.09;98.13;102961.53;4218634;28;20028;-73
2021/03/17 07:16:06;;;;;;;19.60;8.00;;;8.60;99.90;;;8.22;96.79;102966.00;4218560;28;20520;-73
2021/03/17 07:18:25;;;;;;;17.48;8.38;;;8.70;99.90;;;8.28;96.95;102959.59;4217940;28;20035;-73
2021/03/17 07:20:45;;;;;;;16.80;7.78;;;8.90;99.90;;;8.31;97.91;102969.94;4217335;28;20036;-74
2021/03/17 07:22:46;;;;;;;13.43;7.82;;;9.00;99.90;;;8.43;96.76;102971.00;4218460;28;20490;-74
2021/03/17 07:25:01;;;;;;;14.98;7.15;;;9.20;99.90;;;8.56;96.61;102972.88;4218387;28;20066;-74
2021/03/17 07:27:18;;;;;;;12.60;8.38;;;9.30;99.90;;;8.47;96.87;102975.19;4215835;28;20107;-74
2021/03/17 07:29:19;;;;;;;15.40;7.55;;;9.40;99.90;;;8.43;97.87;102981.53;4211279;28;20020;-74
2021/03/17 07:31:30;;;;;;;14.00;7.35;;;9.40;99.90;;;8.50;96.09;102981.13;4217798;28;20028;-73
2021/03/17 07:33:31;;;;;;;16.13;8.18;;;9.40;99.90;;;8.61;96.74;102976.06;4223705;28;20027;-73
2021/03/17 07:35:36;;;;;;;16.17;8.05;;;9.40;99.90;;;8.56;96.69;102987.81;4218056;28;20024;-73
2021/03/17 07:37:37;;;;;;;17.52;7.22;;;9.30;99.90;;;8.44;95.59;102984.09;4217814;28;20059;-73
2021/03/17 07:39:42;;;;;;;11.55;7.50;;;9.20;99.90;;;8.34;95.55;102991.66;4216704;28;20039;-73
2021/03/17 07:41:44;;;;;;;15.55;6.68;;;9.20;99.90;;;8.08;95.98;102989.59;4206849;28;20020;-73
2021/03/17 07:43:45;;;;;;;18.70;7.22;;;9.20;99.90;;;8.13;96.89;102984.06;4218276;28;20111;-73
2021/03/17 07:45:48;;;;;;;16.25;8.00;;;9.10;99.90;;;8.01;96.65;102926.94;4216935;28;20051;-72
2021/03/17 07:47:49;;;;;;;13.77;7.05;;;9.10;99.90;;;8.37;95.48;102992.41;4215036;28;20085;-73
2021/03/17 07:49:50;;;;;;;19.25;8.07;;;9.10;99.90;;;7.94;95.82;102971.13;4205221;28;20610;-73
2021/03/17 07:51:56;;;;;;;15.07;7.97;;;9.10;99.90;;;7.93;95.68;102950.19;4218067;28;20035;-72
2021/03/17 07:54:00;;;;;;;18.88;7.00;;;9.10;99.90;;;8.21;95.42;102993.22;4218036;28;20039;-72
2021/03/17 07:56:02;;;;;;;19.75;7.43;;;9.10;99.90;;;8.13;94.97;102979.66;4213687;28;20028;-73
2021/03/17 07:58:03;;;;;;;19.48;7.40;;;9.10;99.90;;;8.26;94.48;102987.72;4216255;28;20028;-75
2021/03/17 08:00:06;;;;;;;18.33;6.55;;;9.10;99.90;;;8.43;94.99;102985.00;4216934;28;20399;-74
2021/03/17 08:02:09;;;;;;;19.25;7.65;;;9.10;99.90;;;8.34;94.43;102973.25;4222036;28;20570;-74
2021/03/17 08:04:11;;;;;;;18.10;6.63;;;9.10;99.90;;;8.44;93.90;102977.97;4216189;28;20024;-74
2021/03/17 08:06:21;;;;;;;12.07;6.43;;;9.20;99.90;;;8.29;93.30;102977.06;4215759;28;20016;-74
2021/03/17 08:08:23;;;;;;;18.58;6.65;;;9.20;99.90;;;8.41;93.35;102975.53;4223062;28;20403;-74
2021/03/17 08:10:25;;;;;;;16.65;5.72;;;9.20;99.90;;;8.38;92.46;102994.09;4216066;28;20028;-74
2021/03/17 08:12:26;;;;;;;17.77;6.00;;;9.30;99.90;;;8.45;91.75;102983.16;4205026;28;20094;-75
2021/03/17 08:14:28;;;;;;;15.25;6.50;;;9.30;99.90;;;8.54;91.51;102984.41;4215301;28;20024;-76
2021/03/17 08:16:34;;;;;;;19.02;6.30;;;9.30;99.90;;;8.58;89.52;102980.66;4211336;28;20077;-75
2021/03/17 08:18:36;;;;;;;22.27;5.32;;;9.40;99.90;;;8.58;88.06;102976.25;4217080;28;20084;-73
2021/03/17 08:20:47;;;;;;;15.82;5.10;;;9.50;99.90;;;8.52;87.73;102965.22;4229277;28;20036;-73
2021/03/17 08:22:51;;;;;;;17.58;6.57;;;9.50;99.90;;;8.70;88.59;102978.16;4215934;28;20054;-73
2021/03/17 08:24:52;;;;;;;18.88;5.43;;;9.50;99.90;;;8.69;87.02;102978.28;4220161;28;20024;-72
2021/03/17 08:26:53;;;;;;;13.90;5.55;;;9.60;99.90;;;8.89;87.02;102989.31;4220090;28;20081;-72
2021/03/17 08:28:56;;;;;;;18.25;5.90;;;9.70;99.90;;;8.82;85.12;103003.78;4218970;28;20040;-72
2021/03/17 08:30:58;;;;;;;15.68;6.45;;;9.70;99.90;;;8.79;84.46;103001.31;4220563;28;20052;-72
2021/03/17 08:33:02;;;;;;;21.45;6.15;;;9.70;99.90;;;8.75;83.02;102991.91;4211401;28;20110;-74
2021/03/17 08:35:03;;;;;;;12.85;5.05;;;9.80;99.90;;;8.83;83.45;103002.84;4220683;28;20028;-73
2021/03/17 08:37:12;;;;;;;21.30;6.28;;;9.80;99.90;;;8.92;81.48;103005.88;4220337;28;20545;-73
2021/03/17 08:39:33;;;;;;;21.45;6.97;;;9.80;99.90;;;8.90;80.44;102995.41;4219465;28;20024;-73
2021/03/17 08:41:43;;;;;;;15.75;4.75;;;9.80;99.90;;;9.04;80.24;103007.78;4209485;28;20031;-73